AirNav   Bose ProFlight Series 2 Headset
 
 1961 users online  

E81 Superior Municipal Airport
Superior, Arizona, USA

GOING TO SUPERIOR?


FAA INFORMATION EFFECTIVE 02 JANUARY 2020

Location

FAA Identifier: E81
Lat/Long: 33-16-40.2020N 111-07-37.4340W
33-16.670033N 111-07.623900W
33.2778339,-111.1270650
(estimated)
Elevation: 2646 ft. / 807 m (estimated)
Variation: 12E (1985)
From city: 2 miles SW of SUPERIOR, AZ
Time zone: UTC -7 (year round; does not observe DST)
Zip code: 85273

Airport Operations

Airport use: Open to the public
Activation date: 04/1945
Control tower: no
ARTCC: ALBUQUERQUE CENTER
FSS: PRESCOTT FLIGHT SERVICE STATION
NOTAMs facility: PRC (NOTAM-D service available)
Attendance: UNATNDD
Wind indicator: yes
Segmented circle: no

Airport Communications

CTAF/UNICOM: 122.95

Nearby radio navigation aids

VOR radial/distance  VOR name  Freq  Var
IWAr080/26.3WILLIE VORTAC113.3013E

 
NDB name  Hdg/Dist  Freq  Var  ID
CHANDLER077/34.240712ECHD -.-. .... -..

Airport Services

Airframe service: NONE
Powerplant service: NONE
Bottled oxygen: NONE
Bulk oxygen: NONE

Runway Information

Runway 4/22

Dimensions: 3250 x 75 ft. / 991 x 23 m
Surface: gravel, in fair condition
EAST 2000 FT GOOD COND; REMAINING RY FAIR.
Operational restrictions: MTN 4375 FT MSL LCTD 9,000 FT WEST OF RY 04.
RUNWAY 4  RUNWAY 22
Traffic pattern: leftleft
Markings: nonenone
Runway end identifier lights: nono
Obstructions: 5 ft. brush, 25 ft. from runway, 90 ft. left and right of centerline, 5:1 slope to clear8 ft. tree, 24 ft. from runway, 30 ft. left of centerline, 3:1 slope to clear

Airport Ownership and Management from official FAA records

Ownership: Publicly-owned
Owner: TOWN OF SUPERIOR
PO BOX 218
SUPERIOR, AZ 85173
Phone 520-689-5752
Manager: TODD PRYOR
PO BOX 218
SUPERIOR, AZ 85173
Phone 520-689-5752

Airport Operational Statistics

Aircraft operations: 200/year *
100% transient general aviation
* for 12-month period ending 22 April 2017

Additional Remarks

OBSTNS BRUSH NE RWY; TERRAIN & SMELTER STACKS NE; HILLS & MTN SSW THRU SW OF ARPT.
FOR CD CTC ALBUQUERQUE ARTCC AT 505-856-4861.
AMGR RECOMMENDS LNDG UPHILL TO THE NE.
RY 04/22 BRUSH& TREES TO A HEIGHT OF 12 FT, 65 FT FM CNTRLN ON SOUTH SIDE, 45 FT FM CNTRLN ON NORTH SIDE.
EMERGENCY PHONE 520-689-5254 (POLICE).
LIVESTOCK ON ARPT.
RUNWAY 4 THRESHOLD MARKED BY PAINTED RUBBER TIRES, RUNWAY 22 THRESHOLD UNMARKED.

Instrument Procedures

There are no published instrument procedures at E81.

Some nearby airports with instrument procedures:

P13 - San Carlos Apache Airport (23 nm E)
P08 - Coolidge Municipal Airport (25 nm SW)
KIWA - Phoenix-Mesa Gateway Airport (27 nm W)
KFFZ - Falcon Field Airport (32 nm W)
KCHD - Chandler Municipal Airport (34 nm W)
 
Loc | Ops | Rwys | IFR | FBO | Links
Com | Nav | Svcs | Stats | Notes
Area around E81 (Superior Municipal Airport)
 
Road maps at: MapQuest Bing Google
 
Aerial photo
WARNING: Photo may not be current or correct
Aerial photo of E81 (Superior Municipal Airport)
Photo by Brandon Smith
Photo taken 11-Sep-2010
looking northeast.

Do you have a better or more recent aerial photo of Superior Municipal Airport that you would like to share? If so, please send us your photo.

 
Sectional chart

 
Airport distance calculator
Flying to Superior Municipal Airport? Find the distance to fly.

From to E81

Sunrise and sunset
Times for 24-Jan-2020
 Local
(UTC-7)
 Zulu
(UTC)
Morning civil twilight07:0014:00
Sunrise07:2614:26
Sunset17:4700:47
Evening civil twilight18:1401:14

Current date and time
Zulu (UTC)  24-Jan-2020 21:45:25
Local (UTC-7)  24-Jan-2020 14:45:25
 
METAR
KP08 
25nm SW 
242115Z AUTO RMK AO2 PNO PWINO TSNO
KIWA 
26nm W 
241955Z VRB05KT 10SM FEW250 18/05 A3001
KFFZ 
32nm W 
242054Z 00000KT 10SM CLR 22/03 A2995 RMK AO2 SLP126 T02220033 58031
KCHD 
35nm W 
242047Z 00000KT 10SM BKN250 20/04 A2996
KCGZ 
38nm SW 
242056Z AUTO 33004KT 10SM CLR 19/05 A2997 RMK AO2 SLP146 T01940050 58030
KA39 
43nm SW 
242135Z AUTO 34004KT 10SM BKN100 OVC120 19/07 A2999 RMK AO2
KSDL 
44nm NW 
242053Z 18003KT 10SM CLR 21/01 A2997 RMK AO2 SLP135 T02110011 58028
KPHX 
47nm W 
242051Z 00000KT 10SM FEW180 FEW220 BKN250 22/02 A2994 RMK AO2 SLP129 T02170022 58030
TAF
KIWA 
26nm W 
241720Z 2418/2518 16004KT P6SM BKN250 FM241900 25004KT P6SM BKN250 FM250300 11005KT P6SM SCT250
NOTAMs
Click for the latest NOTAMs
NOTAMs are issued by the DoD/FAA and will open in a separate window not controlled by AirNav.

 

 
 

Would you like to see your business listed on this page?

 If your business provides an interesting product or service to pilots, flight crews, aircraft, or users of the Superior Municipal Airport, you should consider listing it here.  To start the listing process, click on the button below
 
Add a business
 

Other Pages about Superior Municipal Airport

Update a link
 
Copyright © AirNav, LLC. All rights reserved. Privacy Policy  Contact